Terminal Aerodrome Forecast
Issued by NWS

Home | Current Version | Previous Version | Graphics & Text | Print | Product List | Glossary On
Versions: 1 2 3 4 5 6 7 8 9 10 11 12 13
000
FTUS45 KGGW 192320
TAFGDV
TAF
KGDV 192320Z 2000/2024 21009KT P6SM SCT180
     FM201200 24014KT P6SM BKN130 WS020/27040KT
     FM201500 25016G24KT P6SM BKN130
     FM201800 28023G32KT P6SM BKN110
     FM202300 32017G28KT P6SM BKN070=

USA.gov is the U.S. government's official web portal to all federal, state and local government web resources and services.